Time;durP1;ratioP1;P1;durP2;ratioP2;P2;SDS_P1;SDS_P2;PMS_P1;PMS_P2;Temp;Humidity;BMP_temperature;BMP_pressure;BME280_temperature;BME280_humidity;BME280_pressure;Samples;Min_cycle;Max_cycle;Signal;HPM_P1;HPM_P2
2023/10/04 00:00:18;;;;;;;;;;;18.60;75.00;;;;;;5115300;28;20017;-55
2023/10/04 00:02:53;;;;;;;;;;;18.50;75.10;;;;;;5115366;28;19911;-54
2023/10/04 00:05:19;;;;;;;;;;;18.50;75.10;;;;;;5115359;28;20007;-55
2023/10/04 00:07:46;;;;;;;;;;;18.50;75.20;;;;;;5115065;28;19919;-55
2023/10/04 00:10:12;;;;;;;;;;;18.50;75.20;;;;;;5115052;28;19908;-55
2023/10/04 00:12:38;;;;;;;;;;;18.40;75.30;;;;;;5115040;28;19908;-55
2023/10/04 00:15:04;;;;;;;;;;;18.40;75.30;;;;;;5114939;28;20380;-55
2023/10/04 00:17:29;;;;;;;;;;;18.50;75.30;;;;;;5096675;28;19990;-55
2023/10/04 00:19:55;;;;;;;;;;;18.50;75.10;;;;;;5096561;28;19915;-54
2023/10/04 00:22:23;;;;;;;;;;;18.50;75.10;;;;;;5114696;28;19915;-54
2023/10/04 00:24:51;;;;;;;;;;;18.50;75.10;;;;;;5114802;28;19908;-53
2023/10/04 00:27:17;;;;;;;;;;;18.50;75.10;;;;;;5114877;28;19915;-54
2023/10/04 00:29:44;;;;;;;;;;;18.40;74.90;;;;;;5114657;28;20360;-54
2023/10/04 00:32:09;;;;;;;;;;;18.40;75.00;;;;;;5114608;28;19916;-54
2023/10/04 00:34:35;;;;;;;;;;;18.40;75.00;;;;;;5114529;28;19915;-54
2023/10/04 00:37:00;;;;;;;;;;;18.50;74.90;;;;;;5114588;28;19912;-54
2023/10/04 00:39:26;;;;;;;;;;;18.50;74.80;;;;;;5114514;28;20291;-55
2023/10/04 00:41:53;;;;;;;;;;;18.50;74.80;;;;;;5114226;28;19912;-54
2023/10/04 00:44:19;;;;;;;;;;;18.50;75.00;;;;;;5113816;28;19939;-54
2023/10/04 00:46:45;;;;;;;;;;;18.40;74.80;;;;;;5114405;28;19950;-55
2023/10/04 00:49:11;;;;;;;;;;;18.50;74.90;;;;;;5114281;28;19964;-55
2023/10/04 00:51:37;;;;;;;;;;;18.50;74.80;;;;;;5114051;28;19919;-55
2023/10/04 00:54:05;;;;;;;;;;;18.50;75.60;;;;;;5095975;28;20448;-55
2023/10/04 00:56:30;;;;;;;;;;;18.40;74.70;;;;;;5114049;28;19907;-55
2023/10/04 00:58:56;;;;;;;;;;;18.40;74.90;;;;;;5114143;28;19914;-54
2023/10/04 01:01:21;;;;;;;;;;;18.40;74.80;;;;;;5095798;28;20328;-55
2023/10/04 01:03:47;;;;;;;;;;;18.40;74.80;;;;;;5114077;28;20382;-55
2023/10/04 01:06:14;;;;;;;;;;;18.40;74.80;;;;;;5113933;28;19931;-54
2023/10/04 01:08:40;;;;;;;;;;;18.40;74.80;;;;;;5114096;28;19907;-54
2023/10/04 01:11:10;;;;;;;;;;;18.40;74.70;;;;;;5095788;28;20320;-54
2023/10/04 01:13:38;;;;;;;;;;;18.40;74.80;;;;;;5113827;28;19907;-55
2023/10/04 01:16:08;;;;;;;;;;;18.40;74.80;;;;;;5113785;28;19908;-54
2023/10/04 01:18:34;;;;;;;;;;;18.40;74.80;;;;;;5120608;28;19990;-55
2023/10/04 01:21:00;;;;;;;;;;;18.40;74.70;;;;;;5113712;28;19966;-54
2023/10/04 01:23:25;;;;;;;;;;;18.40;74.80;;;;;;5095494;28;19907;-55
2023/10/04 01:25:51;;;;;;;;;;;18.40;74.70;;;;;;5113560;28;19911;-55
2023/10/04 01:28:17;;;;;;;;;;;18.40;74.70;;;;;;5113611;28;19991;-54
2023/10/04 01:30:46;;;;;;;;;;;18.40;74.60;;;;;;5113517;28;19908;-54
2023/10/04 01:33:15;;;;;;;;;;;18.40;74.70;;;;;;5113582;28;19915;-55
2023/10/04 01:35:45;;;;;;;;;;;18.30;74.70;;;;;;5095643;28;20019;-54
2023/10/04 01:38:10;;;;;;;;;;;18.30;74.80;;;;;;5113403;28;19908;-55
2023/10/04 01:40:38;;;;;;;;;;;18.30;74.80;;;;;;5113478;28;19962;-55
2023/10/04 01:43:14;;;;;;;;;;;18.30;74.70;;;;;;5113330;28;19943;-55
2023/10/04 01:45:44;;;;;;;;;;;18.30;74.80;;;;;;5103675;28;19974;-54
2023/10/04 01:48:10;;;;;;;;;;;18.30;75.60;;;;;;5094997;28;19915;-55
2023/10/04 01:50:36;;;;;;;;;;;18.30;74.80;;;;;;5095123;28;19952;-53
2023/10/04 01:53:01;;;;;;;;;;;18.30;74.80;;;;;;5113190;28;19947;-54
2023/10/04 01:55:26;;;;;;;;;;;18.30;74.80;;;;;;5117181;28;19908;-55
2023/10/04 01:57:52;;;;;;;;;;;18.30;74.70;;;;;;5117566;28;19908;-55
2023/10/04 02:00:20;;;;;;;;;;;18.30;74.90;;;;;;5117414;28;19908;-55
2023/10/04 02:02:46;;;;;;;;;;;18.30;74.90;;;;;;5099221;28;19965;-55
2023/10/04 02:05:18;;;;;;;;;;;18.30;75.00;;;;;;5117461;28;19908;-54
2023/10/04 02:07:44;;;;;;;;;;;18.30;75.10;;;;;;5099138;28;19908;-54
2023/10/04 02:10:11;;;;;;;;;;;18.30;75.10;;;;;;5117457;28;19915;-55
2023/10/04 02:12:36;;;;;;;;;;;18.30;75.10;;;;;;5117316;28;20364;-53
2023/10/04 02:15:02;;;;;;;;;;;18.30;75.00;;;;;;5117210;28;19956;-54
2023/10/04 02:17:29;;;;;;;;;;;18.30;75.20;;;;;;5117284;28;19908;-55
2023/10/04 02:19:54;;;;;;;;;;;18.20;75.30;;;;;;5117212;28;19915;-55
2023/10/04 02:22:20;;;;;;;;;;;18.30;75.20;;;;;;5116991;28;19916;-55
2023/10/04 02:24:45;;;;;;;;;;;18.30;75.30;;;;;;5117181;28;20375;-55
2023/10/04 02:27:11;;;;;;;;;;;18.30;75.30;;;;;;5117131;28;20303;-55
2023/10/04 02:29:39;;;;;;;;;;;18.30;75.30;;;;;;5116981;28;19914;-53
2023/10/04 02:32:08;;;;;;;;;;;18.20;75.30;;;;;;5117061;28;19998;-55
2023/10/04 02:34:38;;;;;;;;;;;18.20;75.30;;;;;;5116913;28;19911;-55
2023/10/04 02:37:06;;;;;;;;;;;18.30;75.40;;;;;;5116844;28;19915;-55
2023/10/04 02:39:32;;;;;;;;;;;18.30;75.40;;;;;;5116798;28;19911;-53
2023/10/04 02:41:59;;;;;;;;;;;18.20;75.50;;;;;;5116679;28;19955;-55
2023/10/04 02:44:25;;;;;;;;;;;18.20;75.40;;;;;;5116766;28;19911;-55
2023/10/04 02:46:50;;;;;;;;;;;18.20;75.50;;;;;;5116680;28;19908;-55
2023/10/04 02:49:16;;;;;;;;;;;18.20;75.50;;;;;;5116638;28;19916;-55
2023/10/04 02:51:44;;;;;;;;;;;18.20;75.70;;;;;;5116399;28;19924;-55
2023/10/04 02:54:10;;;;;;;;;;;18.10;75.80;;;;;;5116592;28;19967;-54
2023/10/04 02:56:41;;;;;;;;;;;18.10;75.80;;;;;;5097536;28;19912;-54
2023/10/04 02:59:07;;;;;;;;;;;18.10;75.90;;;;;;5102921;28;19908;-54
2023/10/04 03:01:32;;;;;;;;;;;18.10;75.80;;;;;;5095900;28;19935;-53
2023/10/04 03:03:58;;;;;;;;;;;18.10;75.80;;;;;;5111604;28;19919;-55
2023/10/04 03:06:24;;;;;;;;;;;18.10;75.80;;;;;;5095278;28;19915;-54
2023/10/04 03:08:55;;;;;;;;;;;18.20;75.90;;;;;;5095960;28;19915;-55
2023/10/04 03:11:21;;;;;;;;;;;18.10;75.90;;;;;;5102727;28;20403;-55
2023/10/04 03:13:47;;;;;;;;;;;18.20;75.90;;;;;;5095966;28;19961;-54
2023/10/04 03:16:12;;;;;;;;;;;18.10;75.80;;;;;;5111413;28;19908;-54
2023/10/04 03:18:39;;;;;;;;;;;18.10;75.90;;;;;;5095655;28;20349;-55
2023/10/04 03:23:34;;;;;;;;;;;18.10;76.10;;;;;;5095818;28;20397;-55
2023/10/04 03:26:00;;;;;;;;;;;18.10;76.00;;;;;;5096182;28;20386;-55
2023/10/04 03:28:26;;;;;;;;;;;18.10;75.90;;;;;;5095524;28;19908;-55
2023/10/04 03:30:55;;;;;;;;;;;18.10;76.10;;;;;;5095468;28;19916;-55
2023/10/04 03:33:21;;;;;;;;;;;18.10;76.10;;;;;;5095394;28;19912;-54
2023/10/04 03:35:48;;;;;;;;;;;18.00;76.10;;;;;;5095378;28;19915;-55
2023/10/04 03:38:14;;;;;;;;;;;18.10;76.10;;;;;;5095247;28;19960;-54
2023/10/04 03:40:39;;;;;;;;;;;18.10;76.00;;;;;;5110957;28;19908;-54
2023/10/04 03:43:06;;;;;;;;;;;18.00;75.90;;;;;;5095099;28;20287;-54
2023/10/04 03:45:35;;;;;;;;;;;18.10;76.00;;;;;;5095074;28;19908;-55
2023/10/04 03:48:01;;;;;;;;;;;18.10;76.00;;;;;;5095003;28;19944;-55
2023/10/04 03:50:27;;;;;;;;;;;18.10;75.90;;;;;;5094898;28;20025;-54
2023/10/04 03:52:57;;;;;;;;;;;18.10;75.70;;;;;;5076930;28;19920;-55
2023/10/04 03:55:23;;;;;;;;;;;18.10;75.70;;;;;;5095402;28;20367;-54
2023/10/04 03:57:50;;;;;;;;;;;18.10;75.70;;;;;;5095208;28;19908;-54
2023/10/04 04:00:17;;;;;;;;;;;18.10;75.80;;;;;;5094775;28;19908;-54
2023/10/04 04:02:43;;;;;;;;;;;18.00;75.70;;;;;;5110493;28;19919;-55
2023/10/04 04:05:14;;;;;;;;;;;18.00;75.80;;;;;;5094743;28;19908;-55
2023/10/04 04:07:40;;;;;;;;;;;18.00;75.90;;;;;;5110279;28;19999;-55
2023/10/04 04:10:07;;;;;;;;;;;18.10;75.80;;;;;;5094619;28;19954;-53
2023/10/04 04:12:34;;;;;;;;;;;18.10;75.80;;;;;;5094690;28;20351;-55
2023/10/04 04:15:00;;;;;;;;;;;18.10;75.70;;;;;;5094473;28;19908;-55
2023/10/04 04:17:27;;;;;;;;;;;18.10;75.70;;;;;;5093434;28;19928;-55
2023/10/04 04:19:52;;;;;;;;;;;18.10;75.80;;;;;;5094445;28;19908;-54
2023/10/04 04:22:23;;;;;;;;;;;18.00;75.80;;;;;;5094194;28;20248;-54
2023/10/04 04:24:52;;;;;;;;;;;18.00;75.80;;;;;;5101763;28;19999;-53
2023/10/04 04:27:22;;;;;;;;;;;18.00;75.80;;;;;;5094361;28;19908;-53
2023/10/04 04:29:52;;;;;;;;;;;18.00;75.90;;;;;;5101146;28;19915;-54
2023/10/04 04:32:26;;;;;;;;;;;18.00;75.80;;;;;;5094183;28;19999;-54
2023/10/04 04:34:53;;;;;;;;;;;18.00;75.80;;;;;;5100974;28;20449;-54
2023/10/04 04:37:19;;;;;;;;;;;18.00;75.70;;;;;;5094004;28;20265;-54
2023/10/04 04:39:44;;;;;;;;;;;18.00;75.70;;;;;;5094201;28;19918;-55
2023/10/04 04:42:11;;;;;;;;;;;18.00;75.70;;;;;;5093874;28;19935;-54
2023/10/04 04:44:39;;;;;;;;;;;18.10;75.80;;;;;;5094031;28;19912;-54
2023/10/04 04:47:04;;;;;;;;;;;18.10;75.70;;;;;;5093806;28;19915;-54
2023/10/04 04:49:30;;;;;;;;;;;18.10;75.70;;;;;;5093762;28;19908;-55
2023/10/04 04:51:56;;;;;;;;;;;18.10;75.70;;;;;;5093759;28;19920;-55
2023/10/04 04:54:23;;;;;;;;;;;18.10;75.80;;;;;;5094319;28;20298;-53
2023/10/04 04:56:49;;;;;;;;;;;18.10;75.70;;;;;;5093711;28;19908;-54
2023/10/04 04:59:14;;;;;;;;;;;18.10;75.80;;;;;;5109249;28;20252;-54
2023/10/04 05:01:40;;;;;;;;;;;18.00;75.70;;;;;;5093702;28;20272;-55
2023/10/04 05:04:06;;;;;;;;;;;18.00;75.70;;;;;;5109176;28;19962;-54
2023/10/04 05:06:32;;;;;;;;;;;18.00;75.70;;;;;;5093500;28;19912;-54
2023/10/04 05:08:58;;;;;;;;;;;18.10;75.70;;;;;;5093608;28;19914;-54
2023/10/04 05:11:24;;;;;;;;;;;18.10;75.70;;;;;;5093369;28;20367;-54
2023/10/04 05:13:51;;;;;;;;;;;18.10;75.70;;;;;;5093370;28;20370;-54
2023/10/04 05:16:16;;;;;;;;;;;18.00;75.80;;;;;;5093251;28;19991;-55
2023/10/04 05:18:43;;;;;;;;;;;18.00;75.80;;;;;;5093338;28;19970;-54
2023/10/04 05:21:10;;;;;;;;;;;18.00;76.10;;;;;;5093092;28;19915;-55
2023/10/04 05:23:36;;;;;;;;;;;18.00;75.70;;;;;;5093225;28;19909;-55
2023/10/04 05:26:01;;;;;;;;;;;18.00;75.70;;;;;;5093777;28;19935;-54
2023/10/04 05:28:30;;;;;;;;;;;18.00;75.70;;;;;;5108408;28;20288;-54
2023/10/04 05:30:55;;;;;;;;;;;18.00;75.60;;;;;;5093141;28;19908;-54
2023/10/04 05:33:21;;;;;;;;;;;18.00;75.70;;;;;;5093065;28;19913;-55
2023/10/04 05:35:47;;;;;;;;;;;18.00;75.90;;;;;;5093225;28;19908;-55
2023/10/04 05:38:14;;;;;;;;;;;18.00;75.90;;;;;;5093105;28;19908;-55
2023/10/04 05:40:43;;;;;;;;;;;18.00;75.90;;;;;;5074945;28;19908;-53
2023/10/04 05:43:08;;;;;;;;;;;17.90;76.20;;;;;;5092837;28;19958;-55
2023/10/04 05:45:34;;;;;;;;;;;17.90;76.20;;;;;;5092826;28;19912;-54
2023/10/04 05:47:59;;;;;;;;;;;17.90;76.30;;;;;;5075041;28;19908;-54
2023/10/04 05:50:25;;;;;;;;;;;17.90;76.10;;;;;;5092716;28;19955;-55
2023/10/04 05:52:51;;;;;;;;;;;18.00;76.20;;;;;;5074737;28;19920;-54
2023/10/04 05:55:16;;;;;;;;;;;17.90;76.10;;;;;;5108632;28;19908;-55
2023/10/04 05:57:44;;;;;;;;;;;17.90;76.20;;;;;;5074664;28;19943;-54
2023/10/04 06:00:27;;;;;;;;;;;17.90;76.30;;;;;;5092879;28;20344;-54
2023/10/04 06:02:53;;;;;;;;;;;17.90;76.30;;;;;;5092638;28;19958;-54
2023/10/04 06:05:22;;;;;;;;;;;17.90;76.50;;;;;;5092712;28;19931;-54
2023/10/04 06:07:48;;;;;;;;;;;17.80;76.40;;;;;;5092746;28;19931;-55
2023/10/04 06:10:14;;;;;;;;;;;17.80;76.40;;;;;;5092580;28;19915;-55
2023/10/04 06:12:39;;;;;;;;;;;17.80;76.40;;;;;;5092652;28;19972;-54
2023/10/04 06:15:10;;;;;;;;;;;17.80;76.40;;;;;;5092691;28;19908;-55
2023/10/04 06:17:38;;;;;;;;;;;17.80;76.40;;;;;;5092659;28;19915;-55
2023/10/04 06:20:22;;;;;;;;;;;17.80;76.40;;;;;;5092621;28;19915;-55
2023/10/04 06:22:49;;;;;;;;;;;17.80;76.40;;;;;;5099397;28;20003;-54
2023/10/04 06:25:15;;;;;;;;;;;17.90;76.50;;;;;;5108121;28;20007;-55
2023/10/04 06:27:40;;;;;;;;;;;17.90;76.50;;;;;;5092534;28;19944;-54
2023/10/04 06:30:06;;;;;;;;;;;17.90;76.50;;;;;;5092585;28;20441;-54
2023/10/04 06:32:37;;;;;;;;;;;17.90;76.50;;;;;;5092476;28;19912;-54
2023/10/04 06:35:03;;;;;;;;;;;17.90;76.50;;;;;;5108141;28;20359;-55
2023/10/04 06:37:29;;;;;;;;;;;17.80;76.40;;;;;;5092505;28;19912;-55
2023/10/04 06:39:55;;;;;;;;;;;17.80;76.40;;;;;;5092832;28;19952;-54
2023/10/04 06:42:20;;;;;;;;;;;17.80;76.40;;;;;;5095471;28;19966;-54
2023/10/04 06:44:47;;;;;;;;;;;17.80;76.40;;;;;;5096253;28;19908;-53
2023/10/04 06:47:15;;;;;;;;;;;17.80;76.40;;;;;;5096110;28;19922;-55
2023/10/04 06:49:40;;;;;;;;;;;17.80;76.40;;;;;;5095904;28;19998;-55
2023/10/04 06:52:07;;;;;;;;;;;17.80;76.50;;;;;;5095947;28;20356;-54
2023/10/04 06:54:33;;;;;;;;;;;17.80;76.60;;;;;;5096525;28;20395;-54
2023/10/04 06:56:59;;;;;;;;;;;17.80;76.50;;;;;;5077832;28;19924;-54
2023/10/04 06:59:24;;;;;;;;;;;17.90;76.60;;;;;;5077640;28;19931;-55
2023/10/04 07:01:51;;;;;;;;;;;17.80;76.50;;;;;;5095862;28;20352;-55
2023/10/04 07:04:16;;;;;;;;;;;17.80;76.50;;;;;;5095749;28;19919;-55
2023/10/04 07:06:42;;;;;;;;;;;17.90;76.60;;;;;;5095778;28;19977;-54
2023/10/04 07:09:07;;;;;;;;;;;17.80;76.50;;;;;;5095789;28;20371;-55
2023/10/04 07:11:33;;;;;;;;;;;17.80;76.70;;;;;;5095603;28;19908;-54
2023/10/04 07:13:58;;;;;;;;;;;17.80;76.70;;;;;;5095488;28;19915;-55
2023/10/04 07:16:24;;;;;;;;;;;17.80;76.80;;;;;;5095628;28;20379;-55
2023/10/04 07:18:49;;;;;;;;;;;17.80;76.80;;;;;;5077591;28;19909;-55
2023/10/04 07:21:15;;;;;;;;;;;17.80;76.90;;;;;;5095362;28;19908;-55
2023/10/04 07:23:40;;;;;;;;;;;17.80;76.80;;;;;;5095776;28;19915;-54
2023/10/04 07:26:09;;;;;;;;;;;17.80;76.80;;;;;;5077967;28;19908;-54
2023/10/04 07:28:37;;;;;;;;;;;17.90;76.70;;;;;;5095508;28;19995;-55
2023/10/04 07:31:03;;;;;;;;;;;17.80;76.70;;;;;;5077129;28;19954;-55
2023/10/04 07:33:28;;;;;;;;;;;17.80;76.70;;;;;;5095496;28;19916;-55
2023/10/04 07:35:55;;;;;;;;;;;17.90;76.70;;;;;;5111047;28;19908;-54
2023/10/04 07:38:20;;;;;;;;;;;17.90;76.60;;;;;;5095093;28;19970;-55
2023/10/04 07:40:46;;;;;;;;;;;17.90;76.50;;;;;;5095177;28;20464;-55
2023/10/04 07:43:13;;;;;;;;;;;17.90;76.50;;;;;;5094976;28;19916;-54
2023/10/04 07:45:39;;;;;;;;;;;17.90;76.50;;;;;;5110793;28;20007;-55
2023/10/04 07:48:06;;;;;;;;;;;17.90;76.50;;;;;;5094945;28;20455;-55
2023/10/04 07:50:31;;;;;;;;;;;18.00;76.60;;;;;;5094917;28;20320;-54
2023/10/04 07:53:04;;;;;;;;;;;18.00;76.60;;;;;;5094620;28;19920;-55
2023/10/04 07:55:30;;;;;;;;;;;18.00;76.60;;;;;;5095730;28;19931;-55
2023/10/04 07:58:02;;;;;;;;;;;18.00;76.60;;;;;;5094894;28;20387;-55
2023/10/04 08:00:29;;;;;;;;;;;18.00;76.60;;;;;;5101601;28;20424;-55
2023/10/04 08:02:55;;;;;;;;;;;17.90;76.50;;;;;;5094762;28;19912;-54
2023/10/04 08:05:25;;;;;;;;;;;17.90;76.50;;;;;;5059891;28;19915;-54
2023/10/04 08:07:50;;;;;;;;;;;18.00;76.60;;;;;;5094536;28;20390;-54
2023/10/04 08:10:16;;;;;;;;;;;17.90;76.50;;;;;;5094598;28;19909;-54
2023/10/04 08:12:42;;;;;;;;;;;17.90;76.50;;;;;;5094466;28;19957;-54
2023/10/04 08:15:08;;;;;;;;;;;18.00;76.60;;;;;;5094404;28;19908;-54
2023/10/04 08:17:33;;;;;;;;;;;18.00;76.60;;;;;;5094212;28;19908;-55
2023/10/04 08:19:59;;;;;;;;;;;18.00;76.60;;;;;;5094606;28;19915;-55
2023/10/04 08:22:24;;;;;;;;;;;18.00;76.70;;;;;;5094263;28;19992;-55
2023/10/04 08:24:52;;;;;;;;;;;18.00;76.70;;;;;;5094779;28;19933;-54
2023/10/04 08:27:18;;;;;;;;;;;18.00;76.60;;;;;;5094269;28;19909;-55
2023/10/04 08:29:43;;;;;;;;;;;18.00;76.70;;;;;;5094227;28;19908;-54
2023/10/04 08:32:09;;;;;;;;;;;18.00;76.80;;;;;;5094267;28;20360;-54
2023/10/04 08:34:35;;;;;;;;;;;18.00;76.80;;;;;;5075965;28;19908;-55
2023/10/04 08:37:00;;;;;;;;;;;18.00;76.90;;;;;;5094048;28;19908;-53
2023/10/04 08:39:26;;;;;;;;;;;18.00;77.00;;;;;;5093795;28;20272;-54
2023/10/04 08:41:52;;;;;;;;;;;18.00;76.90;;;;;;5093840;28;19916;-55
2023/10/04 08:44:18;;;;;;;;;;;18.00;76.90;;;;;;5093902;28;19940;-55
2023/10/04 08:46:44;;;;;;;;;;;18.00;77.00;;;;;;5075835;28;20359;-54
2023/10/04 08:49:10;;;;;;;;;;;18.00;77.00;;;;;;5093869;28;19948;-55
2023/10/04 08:51:55;;;;;;;;;;;18.00;76.90;;;;;;5093569;28;19927;-55
2023/10/04 08:54:21;;;;;;;;;;;18.00;77.60;;;;;;5076105;28;19915;-55
2023/10/04 08:56:57;;;;;;;;;;;18.00;76.90;;;;;;5093697;28;20021;-55
2023/10/04 08:59:24;;;;;;;;;;;18.00;77.00;;;;;;5075554;28;20002;-55
2023/10/04 09:01:50;;;;;;;;;;;18.00;76.90;;;;;;5093385;28;19918;-55
2023/10/04 09:04:18;;;;;;;;;;;18.00;76.90;;;;;;5092779;28;20005;-55
2023/10/04 09:06:47;;;;;;;;;;;18.00;76.90;;;;;;5093438;28;19915;-55
2023/10/04 09:09:14;;;;;;;;;;;18.00;76.90;;;;;;5093315;28;20317;-54
2023/10/04 09:11:41;;;;;;;;;;;18.10;77.00;;;;;;5075638;28;19908;-54
2023/10/04 09:14:07;;;;;;;;;;;18.10;77.00;;;;;;5093387;28;20340;-54
2023/10/04 09:16:32;;;;;;;;;;;18.10;76.90;;;;;;5093330;28;20027;-55
2023/10/04 09:19:03;;;;;;;;;;;18.10;76.80;;;;;;5093156;28;20252;-54
2023/10/04 09:21:29;;;;;;;;;;;18.10;76.80;;;;;;5093103;28;19960;-53
2023/10/04 09:24:08;;;;;;;;;;;18.10;76.80;;;;;;5093295;28;20402;-55
2023/10/04 09:26:34;;;;;;;;;;;18.20;76.90;;;;;;5112854;28;19956;-54
2023/10/04 09:29:00;;;;;;;;;;;18.20;76.90;;;;;;5113508;28;19953;-55
2023/10/04 09:31:26;;;;;;;;;;;18.20;76.90;;;;;;5095168;28;19908;-55
2023/10/04 09:33:51;;;;;;;;;;;18.20;76.70;;;;;;5113463;28;20002;-54
2023/10/04 09:36:30;;;;;;;;;;;18.30;76.60;;;;;;5113407;28;19951;-54
2023/10/04 09:39:04;;;;;;;;;;;18.30;76.50;;;;;;5113591;28;19947;-53
2023/10/04 09:41:33;;;;;;;;;;;18.30;76.30;;;;;;5113351;28;19919;-55
2023/10/04 09:43:59;;;;;;;;;;;18.30;76.40;;;;;;5095052;28;19907;-55
2023/10/04 09:46:24;;;;;;;;;;;18.30;76.20;;;;;;5113386;28;19930;-55
2023/10/04 09:48:50;;;;;;;;;;;18.30;76.10;;;;;;5095028;28;19914;-54
2023/10/04 09:51:16;;;;;;;;;;;18.30;76.20;;;;;;5113140;28;19951;-53
2023/10/04 09:53:42;;;;;;;;;;;18.30;76.00;;;;;;5113204;28;19976;-55
2023/10/04 09:56:09;;;;;;;;;;;18.30;76.10;;;;;;5098253;28;20275;-55
2023/10/04 09:58:35;;;;;;;;;;;18.30;76.00;;;;;;5074705;28;19946;-54
2023/10/04 10:01:11;;;;;;;;;;;18.30;76.10;;;;;;5092852;28;20371;-53
2023/10/04 10:03:41;;;;;;;;;;;18.30;76.10;;;;;;5075214;28;19935;-54
2023/10/04 10:06:07;;;;;;;;;;;18.30;76.00;;;;;;5092769;28;19908;-55
2023/10/04 10:08:33;;;;;;;;;;;18.30;75.70;;;;;;5108327;28;20359;-54
2023/10/04 10:11:00;;;;;;;;;;;18.30;75.80;;;;;;5074798;28;20046;-55
2023/10/04 10:13:25;;;;;;;;;;;18.30;75.70;;;;;;5092630;28;20290;-55
2023/10/04 10:15:53;;;;;;;;;;;18.30;75.60;;;;;;5093430;28;19930;-53
2023/10/04 10:18:19;;;;;;;;;;;18.30;75.60;;;;;;5096747;28;19943;-54
2023/10/04 10:20:45;;;;;;;;;;;18.40;75.40;;;;;;5096764;28;20018;-55
2023/10/04 10:23:13;;;;;;;;;;;18.40;75.30;;;;;;5096581;28;20007;-54
2023/10/04 10:25:39;;;;;;;;;;;18.40;75.30;;;;;;5112162;28;19938;-54
2023/10/04 10:28:09;;;;;;;;;;;18.40;75.20;;;;;;5096575;28;19908;-53
2023/10/04 10:30:35;;;;;;;;;;;18.40;75.20;;;;;;5096803;28;20351;-54
2023/10/04 10:33:02;;;;;;;;;;;18.40;75.00;;;;;;5078257;28;20022;-54
2023/10/04 10:35:46;;;;;;;;;;;18.40;75.00;;;;;;5096400;28;19912;-54
2023/10/04 10:38:31;;;;;;;;;;;18.30;74.80;;;;;;5096333;28;19918;-53
2023/10/04 10:40:56;;;;;;;;;;;18.40;74.80;;;;;;5077931;28;20387;-54
2023/10/04 10:43:22;;;;;;;;;;;18.30;74.60;;;;;;5096168;28;19965;-54
2023/10/04 10:45:47;;;;;;;;;;;18.30;74.40;;;;;;5096165;28;19908;-55
2023/10/04 10:48:13;;;;;;;;;;;18.30;74.50;;;;;;5096059;28;19958;-55
2023/10/04 10:50:39;;;;;;;;;;;18.30;74.60;;;;;;5078218;28;19914;-54
2023/10/04 10:53:05;;;;;;;;;;;18.30;74.50;;;;;;5095989;28;19966;-55
2023/10/04 10:55:34;;;;;;;;;;;18.30;74.60;;;;;;5096580;28;19908;-55
2023/10/04 10:57:59;;;;;;;;;;;18.30;74.80;;;;;;5096050;28;20324;-54
2023/10/04 11:00:29;;;;;;;;;;;18.30;74.70;;;;;;5095888;28;19948;-56
2023/10/04 11:02:55;;;;;;;;;;;18.30;74.80;;;;;;5095747;28;19935;-54
2023/10/04 11:05:21;;;;;;;;;;;18.30;74.80;;;;;;5095788;28;19908;-53
2023/10/04 11:07:51;;;;;;;;;;;18.30;74.70;;;;;;5095926;28;19908;-55
2023/10/04 11:10:16;;;;;;;;;;;18.30;74.80;;;;;;5077641;28;19909;-54
2023/10/04 11:12:46;;;;;;;;;;;18.30;74.60;;;;;;5095866;28;20287;-54
2023/10/04 11:15:11;;;;;;;;;;;18.30;74.40;;;;;;5095678;28;19954;-53
2023/10/04 11:17:37;;;;;;;;;;;18.30;74.60;;;;;;5095522;28;19912;-54
2023/10/04 11:20:09;;;;;;;;;;;18.30;73.80;;;;;;5077072;28;20070;-55
2023/10/04 11:22:45;;;;;;;;;;;18.30;73.70;;;;;;5077025;28;19919;-54
2023/10/04 11:25:13;;;;;;;;;;;18.20;73.50;;;;;;5096163;28;19915;-54
2023/10/04 11:27:40;;;;;;;;;;;18.30;73.30;;;;;;5094897;28;19908;-54
2023/10/04 11:30:06;;;;;;;;;;;18.30;73.20;;;;;;5095426;28;19987;-54
2023/10/04 11:32:32;;;;;;;;;;;18.30;73.30;;;;;;5095547;28;19943;-55
2023/10/04 11:34:57;;;;;;;;;;;18.30;73.20;;;;;;5093975;28;20360;-55
2023/10/04 11:37:29;;;;;;;;;;;18.30;73.30;;;;;;5095315;28;19911;-55
2023/10/04 11:39:54;;;;;;;;;;;18.30;73.30;;;;;;5077196;28;19908;-54
2023/10/04 11:42:22;;;;;;;;;;;18.30;73.20;;;;;;5095045;28;19972;-54
2023/10/04 11:44:47;;;;;;;;;;;18.30;73.20;;;;;;5095002;28;19908;-54
2023/10/04 11:47:15;;;;;;;;;;;18.30;73.00;;;;;;5094998;28;19908;-54
2023/10/04 11:49:53;;;;;;;;;;;18.30;73.00;;;;;;5077124;28;19908;-55
2023/10/04 11:52:21;;;;;;;;;;;18.30;72.70;;;;;;5094524;28;19990;-54
2023/10/04 11:54:47;;;;;;;;;;;18.30;72.60;;;;;;5095395;28;19917;-55
2023/10/04 11:57:25;;;;;;;;;;;18.40;72.90;;;;;;5094851;28;19919;-55
2023/10/04 11:59:51;;;;;;;;;;;18.40;72.70;;;;;;5095116;28;19909;-55
2023/10/04 12:02:16;;;;;;;;;;;18.40;72.50;;;;;;5094732;28;19918;-54
2023/10/04 12:04:41;;;;;;;;;;;18.50;72.50;;;;;;5094839;28;19912;-54
2023/10/04 12:07:07;;;;;;;;;;;18.50;72.40;;;;;;5094626;28;19915;-54
2023/10/04 12:09:36;;;;;;;;;;;18.50;72.30;;;;;;5094790;28;20291;-55
2023/10/04 12:12:03;;;;;;;;;;;18.50;72.50;;;;;;5094511;28;19915;-54
2023/10/04 12:14:31;;;;;;;;;;;18.50;72.40;;;;;;5076336;28;19909;-55
2023/10/04 12:17:03;;;;;;;;;;;18.50;72.60;;;;;;5094277;28;19915;-54
2023/10/04 12:19:31;;;;;;;;;;;18.50;72.40;;;;;;5094162;28;19912;-54
2023/10/04 12:21:59;;;;;;;;;;;18.50;71.70;;;;;;5094183;28;20428;-53
2023/10/04 12:24:25;;;;;;;;;;;18.50;71.00;;;;;;5094710;28;19908;-54
2023/10/04 12:26:55;;;;;;;;;;;18.60;70.30;;;;;;5094045;28;20404;-54
2023/10/04 12:29:21;;;;;;;;;;;18.60;70.40;;;;;;5094151;28;19920;-55
2023/10/04 12:31:47;;;;;;;;;;;18.60;70.80;;;;;;5094392;28;20279;-55
2023/10/04 12:34:13;;;;;;;;;;;18.60;70.70;;;;;;5076009;28;19994;-53
2023/10/04 12:36:39;;;;;;;;;;;18.60;70.90;;;;;;5094037;28;19908;-54
2023/10/04 12:39:06;;;;;;;;;;;18.60;70.50;;;;;;5093188;28;19908;-54
2023/10/04 12:41:32;;;;;;;;;;;18.60;71.20;;;;;;5094081;28;19912;-58
2023/10/04 12:43:57;;;;;;;;;;;18.60;71.30;;;;;;5075740;28;19927;-55
2023/10/04 12:46:23;;;;;;;;;;;18.50;70.90;;;;;;5093669;28;19965;-54
2023/10/04 12:48:48;;;;;;;;;;;18.60;70.60;;;;;;5093703;28;19912;-54
2023/10/04 12:51:14;;;;;;;;;;;18.60;70.60;;;;;;5093484;28;20295;-54
2023/10/04 12:53:39;;;;;;;;;;;18.60;70.70;;;;;;5093586;28;20368;-55
2023/10/04 12:56:07;;;;;;;;;;;18.60;71.20;;;;;;5094178;28;19915;-55
2023/10/04 12:58:33;;;;;;;;;;;18.50;71.10;;;;;;5093667;28;19935;-53
2023/10/04 13:00:58;;;;;;;;;;;18.50;70.70;;;;;;5075433;28;20375;-55
2023/10/04 13:03:24;;;;;;;;;;;18.50;70.70;;;;;;5093343;28;19919;-55
2023/10/04 13:05:49;;;;;;;;;;;18.50;70.30;;;;;;5093503;28;20371;-55
2023/10/04 13:08:15;;;;;;;;;;;18.50;70.10;;;;;;5093613;28;20386;-55
2023/10/04 13:10:41;;;;;;;;;;;18.50;70.00;;;;;;5093625;28;19908;-55
2023/10/04 13:13:07;;;;;;;;;;;18.50;69.70;;;;;;5093643;28;19961;-55
2023/10/04 13:15:33;;;;;;;;;;;18.50;69.70;;;;;;5109047;28;19916;-54
2023/10/04 13:17:58;;;;;;;;;;;18.50;69.90;;;;;;5093379;28;19916;-54
2023/10/04 13:20:26;;;;;;;;;;;18.50;69.60;;;;;;5093180;28;20351;-54
2023/10/04 13:22:53;;;;;;;;;;;18.50;69.60;;;;;;5108843;28;19916;-55
2023/10/04 13:25:19;;;;;;;;;;;18.50;69.70;;;;;;5075906;28;19916;-54
2023/10/04 13:27:45;;;;;;;;;;;18.50;69.60;;;;;;5093203;28;20500;-54
2023/10/04 13:30:10;;;;;;;;;;;18.50;69.60;;;;;;5093135;28;20289;-55
2023/10/04 13:32:37;;;;;;;;;;;18.50;69.60;;;;;;5093024;28;20001;-55
2023/10/04 13:35:06;;;;;;;;;;;18.50;69.30;;;;;;5093013;28;19913;-54
2023/10/04 13:37:31;;;;;;;;;;;18.50;69.50;;;;;;5092997;28;19954;-53
2023/10/04 13:39:57;;;;;;;;;;;18.50;69.60;;;;;;5093004;28;19916;-55
2023/10/04 13:42:23;;;;;;;;;;;18.50;69.50;;;;;;5092798;28;19984;-55
2023/10/04 13:44:49;;;;;;;;;;;18.50;69.20;;;;;;5093008;28;19908;-54
2023/10/04 13:47:15;;;;;;;;;;;18.50;69.40;;;;;;5092729;28;19934;-54
2023/10/04 13:49:41;;;;;;;;;;;18.50;69.40;;;;;;5092635;28;19969;-55
2023/10/04 13:52:06;;;;;;;;;;;18.50;69.40;;;;;;5092900;28;19919;-53
2023/10/04 13:54:32;;;;;;;;;;;18.50;68.90;;;;;;5093647;28;20477;-55
2023/10/04 13:56:59;;;;;;;;;;;18.50;69.00;;;;;;5092826;28;19912;-55
2023/10/04 13:59:25;;;;;;;;;;;18.50;69.00;;;;;;5092895;28;19924;-53
2023/10/04 14:01:51;;;;;;;;;;;18.50;69.10;;;;;;5092801;28;19918;-55
2023/10/04 14:04:16;;;;;;;;;;;18.50;69.30;;;;;;5092725;28;19995;-55
2023/10/04 14:06:42;;;;;;;;;;;18.50;69.30;;;;;;5092851;28;20002;-53
2023/10/04 14:09:11;;;;;;;;;;;18.50;69.50;;;;;;5092945;28;19908;-55
2023/10/04 14:11:37;;;;;;;;;;;18.50;69.60;;;;;;5092731;28;19908;-55
2023/10/04 14:14:07;;;;;;;;;;;18.50;69.80;;;;;;5092804;28;19927;-55
2023/10/04 14:16:35;;;;;;;;;;;18.50;69.80;;;;;;5092992;28;20340;-55